Time;durP1;ratioP1;P1;durP2;ratioP2;P2;SDS_P1;SDS_P2;PMS_P1;PMS_P2;Temp;Humidity;BMP_temperature;BMP_pressure;BME280_temperature;BME280_humidity;BME280_pressure;Samples;Min_cycle;Max_cycle;Signal;HPM_P1;HPM_P2
2020/12/02 00:02:01;;;;;;;41.72;11.52;;;-0.60;99.90;;;;;;5025452;28;20791;-61
2020/12/02 00:04:29;;;;;;;35.55;11.70;;;-0.50;99.90;;;;;;5003241;28;20545;-61
2020/12/02 00:06:56;;;;;;;44.78;13.32;;;-0.50;99.90;;;;;;5023006;28;20504;-61
2020/12/02 00:09:23;;;;;;;37.92;11.77;;;-0.50;99.90;;;;;;5012864;28;20396;-61
2020/12/02 00:11:51;;;;;;;44.05;10.68;;;-0.50;99.90;;;;;;5026477;28;20435;-60
2020/12/02 00:14:28;;;;;;;44.58;12.38;;;-0.50;99.90;;;;;;5011755;28;20093;-60
2020/12/02 00:16:56;;;;;;;40.47;11.40;;;-0.50;99.90;;;;;;5022969;28;20073;-61
2020/12/02 00:19:24;;;;;;;43.65;11.15;;;-0.40;99.90;;;;;;5012879;28;20053;-61
2020/12/02 00:22:07;;;;;;;38.88;10.98;;;-0.40;99.90;;;;;;5009603;28;20053;-61
2020/12/02 00:24:34;;;;;;;37.85;10.55;;;-0.40;99.90;;;;;;5009834;28;20405;-61
2020/12/02 00:27:10;;;;;;;39.50;11.57;;;-0.30;99.90;;;;;;5016411;28;20049;-60
2020/12/02 00:29:37;;;;;;;33.30;11.38;;;-0.30;99.90;;;;;;5009349;28;20050;-61
2020/12/02 00:32:04;;;;;;;38.53;10.88;;;-0.30;99.90;;;;;;5008155;28;20053;-61
2020/12/02 00:34:30;;;;;;;42.72;11.48;;;-0.30;99.90;;;;;;5010305;28;20034;-61
2020/12/02 00:36:57;;;;;;;39.45;13.25;;;-0.20;99.90;;;;;;5040799;28;20037;-62
2020/12/02 00:39:24;;;;;;;45.53;11.73;;;-0.20;99.90;;;;;;5005638;28;20042;-62
2020/12/02 00:41:50;;;;;;;47.63;12.73;;;-0.20;99.90;;;;;;5006300;28;20049;-62
2020/12/02 00:44:17;;;;;;;39.45;11.88;;;-0.10;99.90;;;;;;5008172;28;20038;-62
2020/12/02 00:46:47;;;;;;;38.60;11.85;;;0.00;99.90;;;;;;5009029;28;20041;-62
2020/12/02 00:49:15;;;;;;;37.03;12.63;;;-0.10;99.90;;;;;;5007237;28;20120;-62
2020/12/02 00:51:43;;;;;;;39.70;12.43;;;-0.10;99.90;;;;;;5008663;28;20033;-62
2020/12/02 00:54:09;;;;;;;36.58;11.35;;;-0.10;99.90;;;;;;5008946;28;20514;-62
2020/12/02 00:56:42;;;;;;;47.50;13.63;;;-0.10;99.90;;;;;;5018942;28;20142;-62
2020/12/02 00:59:24;;;;;;;40.72;12.00;;;-0.10;99.90;;;;;;5010582;28;20056;-62
2020/12/02 01:02:05;;;;;;;39.95;12.95;;;0.00;99.90;;;;;;5011910;28;20049;-62
2020/12/02 01:04:32;;;;;;;40.53;12.60;;;-0.10;99.90;;;;;;5015284;28;20376;-62
2020/12/02 01:06:58;;;;;;;35.30;11.68;;;-0.10;99.90;;;;;;5046503;28;20049;-62
2020/12/02 01:09:27;;;;;;;41.35;13.50;;;0.00;99.90;;;;;;5010109;28;20056;-62
2020/12/02 01:11:59;;;;;;;35.97;12.05;;;0.00;99.90;;;;;;5008902;28;20399;-62
2020/12/02 01:14:26;;;;;;;40.60;13.35;;;0.00;99.90;;;;;;5014943;28;20091;-62
2020/12/02 01:16:56;;;;;;;45.45;12.73;;;-0.10;99.90;;;;;;5023933;28;20046;-62
2020/12/02 01:19:26;;;;;;;39.53;12.45;;;-0.20;99.90;;;;;;5012387;28;20552;-62
2020/12/02 01:22:09;;;;;;;34.17;12.10;;;-0.20;99.90;;;;;;5012194;28;20041;-62
2020/12/02 01:24:49;;;;;;;35.38;13.10;;;-0.30;99.90;;;;;;5015042;28;20049;-62
2020/12/02 01:27:29;;;;;;;40.50;11.85;;;-0.30;99.90;;;;;;5021193;28;20042;-62
2020/12/02 01:29:56;;;;;;;43.47;13.55;;;-0.40;99.90;;;;;;5013809;28;20049;-62
2020/12/02 01:32:23;;;;;;;36.20;12.27;;;-0.50;99.90;;;;;;5025508;28;20566;-62
2020/12/02 01:34:52;;;;;;;44.85;13.48;;;-0.60;99.90;;;;;;5015750;28;20042;-62
2020/12/02 01:37:26;;;;;;;38.47;13.45;;;-0.60;99.90;;;;;;5015701;28;20795;-62
2020/12/02 01:40:16;;;;;;;34.65;12.15;;;-0.60;99.90;;;;;;5008910;28;20421;-62
2020/12/02 01:42:54;;;;;;;42.30;13.45;;;-0.70;99.90;;;;;;5045977;28;20112;-62
2020/12/02 01:45:44;;;;;;;41.28;13.88;;;-0.70;99.90;;;;;;5045826;28;20045;-62
2020/12/02 01:48:22;;;;;;;38.22;13.40;;;-0.80;99.90;;;;;;5009986;28;20606;-62
2020/12/02 01:51:04;;;;;;;40.35;12.15;;;-0.80;99.90;;;;;;5023191;28;20045;-62
2020/12/02 01:53:45;;;;;;;35.85;11.10;;;-0.90;99.90;;;;;;5027341;28;20052;-62
2020/12/02 01:56:35;;;;;;;38.20;11.88;;;-0.90;99.90;;;;;;5013748;28;20698;-62
2020/12/02 01:59:07;;;;;;;35.80;11.82;;;-0.90;99.90;;;;;;5011331;28;20050;-62
2020/12/02 02:01:43;;;;;;;31.23;10.98;;;-1.00;99.90;;;;;;5011579;28;20393;-61
2020/12/02 02:04:17;;;;;;;36.65;11.75;;;-1.00;99.90;;;;;;5013694;28;20046;-62
2020/12/02 02:07:07;;;;;;;35.92;12.38;;;-1.10;99.90;;;;;;5011688;28;20046;-62
2020/12/02 02:09:35;;;;;;;35.58;11.43;;;-1.10;99.90;;;;;;5040136;28;20053;-62
2020/12/02 02:12:10;;;;;;;43.80;11.82;;;-1.10;99.90;;;;;;5011719;28;20096;-62
2020/12/02 02:14:56;;;;;;;40.08;11.98;;;-1.10;99.90;;;;;;5011281;28;20478;-62
2020/12/02 02:17:23;;;;;;;42.05;12.02;;;-1.20;99.90;;;;;;5007455;28;20043;-62
2020/12/02 02:19:50;;;;;;;40.55;14.23;;;-1.20;99.90;;;;;;5013580;28;20038;-62
2020/12/02 02:22:17;;;;;;;40.78;13.20;;;-1.30;99.90;;;;;;5012794;28;20034;-62
2020/12/02 02:24:47;;;;;;;40.58;14.18;;;-1.30;99.90;;;;;;5018933;28;20136;-62
2020/12/02 02:27:16;;;;;;;37.85;13.60;;;-1.40;99.90;;;;;;5010401;28;20104;-62
2020/12/02 02:29:46;;;;;;;39.90;13.50;;;-1.40;99.90;;;;;;5013995;28;20432;-62
2020/12/02 02:32:24;;;;;;;39.70;13.80;;;-1.50;99.90;;;;;;5012594;28;20057;-62
2020/12/02 02:34:57;;;;;;;42.13;13.02;;;-1.50;99.90;;;;;;5011788;28;20045;-62
2020/12/02 02:37:26;;;;;;;;;;;-1.50;99.90;;;;;;5012386;28;20042;-62
2020/12/02 02:39:53;;;;;;;36.00;11.80;;;-1.50;99.90;;;;;;5038498;28;19979;-62
2020/12/02 02:42:35;;;;;;;43.58;13.43;;;-1.60;99.90;;;;;;5009386;28;20044;-62
2020/12/02 02:45:25;;;;;;;41.90;13.23;;;-1.60;99.90;;;;;;5010066;28;20539;-62
2020/12/02 02:47:53;;;;;;;38.72;12.38;;;-1.60;99.90;;;;;;5011981;28;20064;-62
2020/12/02 02:50:22;;;;;;;42.78;11.68;;;-1.60;99.90;;;;;;5011461;28;20038;-62
2020/12/02 02:52:50;;;;;;;40.45;12.00;;;-1.70;99.90;;;;;;5009700;28;20060;-62
2020/12/02 02:55:23;;;;;;;38.72;13.88;;;-1.70;99.90;;;;;;5020690;28;20037;-62
2020/12/02 02:57:50;;;;;;;39.55;13.13;;;-1.70;99.90;;;;;;5009751;28;20068;-62
2020/12/02 03:00:31;;;;;;;38.88;13.20;;;-1.80;99.90;;;;;;5011396;28;20041;-62
2020/12/02 03:02:57;;;;;;;38.85;11.68;;;-1.80;99.90;;;;;;5010930;28;20488;-62
2020/12/02 03:05:25;;;;;;;40.75;12.70;;;-1.90;99.90;;;;;;5040329;28;20045;-62
2020/12/02 03:07:57;;;;;;;41.20;12.75;;;-1.90;99.90;;;;;;5010882;28;20104;-62
2020/12/02 03:10:28;;;;;;;43.10;13.75;;;-2.00;99.90;;;;;;5022048;28;20060;-62
2020/12/02 03:13:03;;;;;;;39.15;13.00;;;-2.00;99.90;;;;;;5023692;28;20386;-62
2020/12/02 03:15:31;;;;;;;43.13;14.57;;;-2.00;99.90;;;;;;5009402;28;20061;-62
2020/12/02 03:17:59;;;;;;;49.70;13.93;;;-2.10;99.90;;;;;;5008394;28;20058;-62
2020/12/02 03:20:39;;;;;;;46.47;12.73;;;-2.10;99.90;;;;;;5018521;28;20065;-62
2020/12/02 03:23:10;;;;;;;41.53;12.95;;;-2.10;99.90;;;;;;5009504;28;20038;-62
2020/12/02 03:25:38;;;;;;;36.65;12.48;;;-2.10;99.90;;;;;;5010178;28;20038;-62
2020/12/02 03:28:05;;;;;;;41.00;12.82;;;-2.20;99.90;;;;;;5013316;28;20050;-62
2020/12/02 03:30:32;;;;;;;41.50;14.90;;;-2.20;99.90;;;;;;5011442;28;20046;-62
2020/12/02 03:32:59;;;;;;;42.05;13.88;;;-2.20;99.90;;;;;;5010375;28;20042;-62
2020/12/02 03:35:26;;;;;;;39.25;14.18;;;-2.20;99.90;;;;;;5011554;28;20054;-62
2020/12/02 03:37:53;;;;;;;42.20;14.40;;;-2.20;99.90;;;;;;5009176;28;20046;-62
2020/12/02 03:40:20;;;;;;;39.05;13.18;;;-2.30;99.90;;;;;;5012483;28;20073;-62
2020/12/02 03:42:47;;;;;;;42.85;13.38;;;-2.20;99.90;;;;;;5008089;28;20041;-62
2020/12/02 03:45:13;;;;;;;37.40;12.48;;;-2.20;99.90;;;;;;5012683;28;20048;-62
2020/12/02 03:47:40;;;;;;;44.35;14.05;;;-2.20;99.90;;;;;;5001137;28;20034;-62
2020/12/02 03:50:09;;;;;;;49.15;12.88;;;-2.20;99.90;;;;;;5021248;28;20037;-62
2020/12/02 03:52:37;;;;;;;44.90;13.68;;;-2.30;99.90;;;;;;5010072;28;20056;-62
2020/12/02 03:55:05;;;;;;;46.80;13.95;;;-2.30;99.90;;;;;;5008537;28;20052;-62
2020/12/02 03:57:32;;;;;;;34.90;11.27;;;-2.30;99.90;;;;;;5007011;28;20061;-62
2020/12/02 03:59:58;;;;;;;47.25;13.80;;;-2.30;99.90;;;;;;5013082;28;20046;-62
2020/12/02 04:02:25;;;;;;;44.00;13.82;;;-2.30;99.90;;;;;;5014534;28;20041;-62
2020/12/02 04:04:52;;;;;;;47.08;13.85;;;-2.30;99.90;;;;;;5011241;28;20030;-62
2020/12/02 04:07:19;;;;;;;44.72;12.70;;;-2.30;99.90;;;;;;5011379;28;20042;-62
2020/12/02 04:09:45;;;;;;;38.72;12.93;;;-2.40;99.90;;;;;;5015978;28;20053;-62
2020/12/02 04:12:12;;;;;;;43.88;13.82;;;-2.30;99.90;;;;;;5017654;28;20603;-62
2020/12/02 04:14:38;;;;;;;43.17;13.48;;;-2.40;99.90;;;;;;5009886;28;20196;-62
2020/12/02 04:17:05;;;;;;;46.10;12.95;;;-2.40;99.90;;;;;;5009040;28;20045;-62
2020/12/02 04:19:32;;;;;;;47.05;12.98;;;-2.40;99.90;;;;;;5019873;28;20048;-62
2020/12/02 04:21:59;;;;;;;49.63;14.23;;;-2.40;99.90;;;;;;5009636;28;20485;-62
2020/12/02 04:24:26;;;;;;;34.83;11.60;;;-2.50;99.90;;;;;;5007498;28;20437;-62
2020/12/02 04:26:53;;;;;;;39.03;12.75;;;-2.40;99.90;;;;;;5011288;28;20038;-62
2020/12/02 04:29:19;;;;;;;35.58;12.73;;;-2.50;99.90;;;;;;5009351;28;20572;-62
2020/12/02 04:31:46;;;;;;;31.92;10.95;;;-2.50;99.90;;;;;;5012573;28;20049;-62
2020/12/02 04:34:12;;;;;;;40.38;13.00;;;-2.50;99.90;;;;;;5012176;28;20038;-62
2020/12/02 04:36:39;;;;;;;44.30;12.45;;;-2.50;99.90;;;;;;5011721;28;20057;-62
2020/12/02 04:39:06;;;;;;;37.90;11.05;;;-2.50;99.90;;;;;;5014091;28;20037;-62
2020/12/02 04:41:34;;;;;;;34.33;10.45;;;-2.50;99.90;;;;;;5015075;28;20046;-62
2020/12/02 04:44:00;;;;;;;41.53;12.73;;;-2.60;99.90;;;;;;5014120;28;20046;-62
2020/12/02 04:46:33;;;;;;;38.17;11.63;;;-2.60;99.90;;;;;;5013832;28;20057;-62
2020/12/02 04:49:21;;;;;;;42.15;13.77;;;-2.60;99.90;;;;;;5019243;28;20559;-62
2020/12/02 04:51:51;;;;;;;44.72;15.38;;;-2.60;99.90;;;;;;5011511;28;20053;-62
2020/12/02 04:54:18;;;;;;;47.67;14.13;;;-2.60;99.90;;;;;;5032444;28;20480;-62
2020/12/02 04:56:47;;;;;;;53.83;16.70;;;-2.70;99.90;;;;;;5012296;28;20058;-61
2020/12/02 04:59:14;;;;;;;41.45;15.30;;;-2.80;99.90;;;;;;5012171;28;20531;-62
2020/12/02 05:01:51;;;;;;;43.47;13.98;;;-2.70;99.90;;;;;;5011241;28;20052;-62
2020/12/02 05:04:25;;;;;;;43.65;14.80;;;-2.80;99.90;;;;;;5043135;28;20128;-62
2020/12/02 05:07:11;;;;;;;46.00;14.98;;;-2.80;99.90;;;;;;5044010;28;20054;-62
2020/12/02 05:09:57;;;;;;;42.40;14.48;;;-2.80;99.90;;;;;;5019694;28;20050;-62
2020/12/02 05:12:34;;;;;;;43.08;15.45;;;-2.80;99.90;;;;;;5014181;28;20042;-62
2020/12/02 05:15:29;;;;;;;49.58;18.30;;;-2.80;99.90;;;;;;5016003;28;20140;-62
2020/12/02 05:18:19;;;;;;;51.40;16.80;;;-2.80;99.90;;;;;;5007707;28;20394;-62
2020/12/02 05:21:19;;;;;;;64.57;18.40;;;-2.80;99.90;;;;;;5012891;28;20046;-61
2020/12/02 05:24:10;;;;;;;54.17;16.92;;;-2.80;99.90;;;;;;5012738;28;20104;-62
2020/12/02 05:26:40;;;;;;;53.80;18.05;;;-2.80;99.90;;;;;;5027741;28;20040;-63
2020/12/02 05:29:45;;;;;;;48.85;17.73;;;-2.80;99.90;;;;;;5006942;28;20046;-62
2020/12/02 05:32:17;;;;;;;50.42;16.38;;;-2.80;99.90;;;;;;5001899;28;20050;-62
2020/12/02 05:34:44;;;;;;;47.53;15.50;;;-2.90;99.90;;;;;;5012153;28;20061;-62
2020/12/02 05:37:34;;;;;;;37.83;14.15;;;-2.90;99.90;;;;;;4993352;28;20100;-61
2020/12/02 05:40:06;;;;;;;46.08;17.17;;;-3.00;99.90;;;;;;5010449;28;20042;-61
2020/12/02 05:42:41;;;;;;;40.63;13.23;;;-2.90;99.90;;;;;;5009554;28;20085;-62
2020/12/02 05:45:22;;;;;;;51.92;16.40;;;-2.90;99.90;;;;;;4990318;28;20082;-62
2020/12/02 05:47:52;;;;;;;55.67;18.65;;;-3.00;99.90;;;;;;5009680;28;20056;-62
2020/12/02 05:50:23;;;;;;;51.67;17.48;;;-3.00;99.90;;;;;;4990560;28;20124;-62
2020/12/02 05:53:20;;;;;;;49.15;18.08;;;-3.00;99.90;;;;;;5002046;28;20104;-62
2020/12/02 05:55:47;;;;;;;45.72;17.00;;;-3.00;99.90;;;;;;4988260;28;20053;-62
2020/12/02 05:58:20;;;;;;;49.22;15.57;;;-3.10;99.90;;;;;;5001760;28;20058;-62
2020/12/02 06:00:46;;;;;;;46.20;16.05;;;-3.10;99.90;;;;;;5009221;28;20065;-62
2020/12/02 06:03:17;;;;;;;44.33;16.25;;;-3.10;99.90;;;;;;5009889;28;20038;-62
2020/12/02 06:05:44;;;;;;;43.80;15.45;;;-3.10;99.90;;;;;;4994557;28;20065;-62
2020/12/02 06:08:41;;;;;;;52.17;16.48;;;-3.10;99.90;;;;;;5013002;28;20046;-62
2020/12/02 06:11:17;;;;;;;44.25;14.98;;;-3.10;99.90;;;;;;5017580;28;20042;-62
2020/12/02 06:13:51;;;;;;;47.78;15.27;;;-3.20;99.90;;;;;;5011027;28;20050;-62
2020/12/02 06:16:40;;;;;;;47.25;14.80;;;-3.20;99.90;;;;;;5013435;28;20042;-62
2020/12/02 06:19:18;;;;;;;45.67;15.43;;;-3.20;99.90;;;;;;5020485;28;20045;-62
2020/12/02 06:21:49;;;;;;;46.78;16.92;;;-3.20;99.90;;;;;;4999891;28;20121;-62
2020/12/02 06:24:43;;;;;;;48.78;17.52;;;-3.20;99.90;;;;;;5009716;28;20046;-62
2020/12/02 06:27:16;;;;;;;49.80;16.05;;;-3.20;99.90;;;;;;5009265;28;20046;-62
2020/12/02 06:29:46;;;;;;;51.17;17.63;;;-3.20;99.90;;;;;;5042662;28;20042;-62
2020/12/02 06:32:15;;;;;;;48.95;17.77;;;-3.20;99.90;;;;;;5010371;28;20381;-61
2020/12/02 06:34:43;;;;;;;42.03;17.10;;;-3.10;99.90;;;;;;5024802;28;20076;-62
2020/12/02 06:37:09;;;;;;;46.97;16.88;;;-3.10;99.90;;;;;;5010506;28;20030;-62
2020/12/02 06:39:39;;;;;;;40.30;15.85;;;-3.10;99.90;;;;;;5013243;28;20049;-62
2020/12/02 06:42:26;;;;;;;51.15;16.70;;;-3.10;99.90;;;;;;5009377;28;20034;-62
2020/12/02 06:45:26;;;;;;;48.08;16.65;;;-3.00;99.90;;;;;;4994340;28;20444;-62
2020/12/02 06:47:53;;;;;;;51.72;18.13;;;-2.90;99.90;;;;;;5010282;28;20077;-62
2020/12/02 06:50:33;;;;;;;45.75;18.30;;;-2.90;99.90;;;;;;5010447;28;20050;-62
2020/12/02 06:53:11;;;;;;;52.08;18.10;;;-2.90;99.90;;;;;;5017436;28;20405;-62
2020/12/02 06:55:38;;;;;;;51.67;17.27;;;-2.80;99.90;;;;;;5025966;28;20050;-62
2020/12/02 06:58:14;;;;;;;56.63;20.67;;;-2.80;99.90;;;;;;5009657;28;20076;-62
2020/12/02 07:00:48;;;;;;;50.95;18.90;;;-2.70;99.90;;;;;;5000059;28;20042;-62
2020/12/02 07:03:32;;;;;;;61.72;20.70;;;-2.70;99.90;;;;;;5009273;28;20049;-62
2020/12/02 07:06:12;;;;;;;56.25;19.90;;;-2.60;99.90;;;;;;5008172;28;20038;-62
2020/12/02 07:08:40;;;;;;;67.50;22.45;;;-2.50;99.90;;;;;;5008929;28;20647;-62
2020/12/02 07:11:12;;;;;;;68.47;24.65;;;-2.50;99.90;;;;;;5012425;28;20046;-62
2020/12/02 07:13:42;;;;;;;67.18;24.90;;;-2.40;99.90;;;;;;5009554;28;20048;-62
2020/12/02 07:16:20;;;;;;;69.35;24.38;;;-2.30;99.90;;;;;;5010045;28;20052;-62
2020/12/02 07:18:53;;;;;;;76.93;25.30;;;-2.20;99.90;;;;;;5014201;28;20061;-62
2020/12/02 07:21:39;;;;;;;69.57;24.25;;;-2.00;99.90;;;;;;5025239;28;20052;-62
2020/12/02 07:24:06;;;;;;;85.97;26.75;;;-2.00;99.90;;;;;;5011283;28;20053;-62
2020/12/02 07:26:32;;;;;;;87.45;28.35;;;-1.80;99.90;;;;;;5010116;28;20500;-62
2020/12/02 07:29:10;;;;;;;88.82;28.13;;;-1.70;99.90;;;;;;5008350;28;20052;-62
2020/12/02 07:31:38;;;;;;;82.63;31.23;;;-1.60;99.90;;;;;;5006265;28;20597;-62
2020/12/02 07:34:11;;;;;;;94.18;34.17;;;-1.50;99.90;;;;;;5012767;28;20649;-62
2020/12/02 07:36:39;;;;;;;81.40;31.48;;;-1.30;99.90;;;;;;5011311;28;20106;-62
2020/12/02 07:39:10;;;;;;;76.40;29.77;;;-1.20;99.90;;;;;;5010366;28;20046;-62
2020/12/02 07:42:04;;;;;;;86.55;29.95;;;-1.10;99.90;;;;;;5010664;28;20804;-62
2020/12/02 07:44:35;;;;;;;;;;;-0.90;99.90;;;;;;5012413;28;20049;-62
2020/12/02 07:47:06;;;;;;;110.72;35.92;;;-0.80;99.90;;;;;;5004059;28;19925;-62
2020/12/02 07:49:36;;;;;;;128.48;42.80;;;-0.70;99.90;;;;;;5036033;28;20401;-62
2020/12/02 07:52:20;;;;;;;135.35;44.42;;;-0.50;99.90;;;;;;4997409;28;20129;-63
2020/12/02 07:54:53;;;;;;;131.63;44.53;;;-0.40;99.90;;;;;;4990993;28;20049;-62
2020/12/02 07:57:20;;;;;;;;;;;-0.30;99.90;;;;;;5006375;28;20056;-62
2020/12/02 08:00:03;;;;;;;108.60;35.38;;;-0.10;99.90;;;;;;5020824;28;20411;-62
2020/12/02 08:02:43;;;;;;;92.15;33.13;;;0.00;99.90;;;;;;5007259;28;20081;-63
2020/12/02 08:05:37;;;;;;;74.53;26.95;;;0.20;99.90;;;;;;5005741;28;20065;-62
2020/12/02 08:08:05;;;;;;;53.95;19.20;;;0.30;99.90;;;;;;4992384;28;20620;-63
2020/12/02 08:10:35;;;;;;;44.75;17.90;;;0.50;99.90;;;;;;4999687;28;20049;-64
2020/12/02 08:13:17;;;;;;;50.05;18.63;;;0.50;99.90;;;;;;4998302;28;20575;-63
2020/12/02 08:15:54;;;;;;;54.42;18.00;;;0.70;99.90;;;;;;5003817;28;20747;-63
2020/12/02 08:18:27;;;;;;;52.67;17.73;;;0.80;99.90;;;;;;4999621;28;20041;-63
2020/12/02 08:21:08;;;;;;;56.92;18.98;;;0.90;99.90;;;;;;5002742;28;20711;-65
2020/12/02 08:24:09;;;;;;;48.83;18.35;;;1.00;99.90;;;;;;5000772;28;20385;-62
2020/12/02 08:26:36;;;;;;;37.58;15.90;;;1.20;99.90;;;;;;5001234;28;20061;-61
2020/12/02 08:29:06;;;;;;;50.58;16.50;;;1.20;99.90;;;;;;5002412;28;20046;-63
2020/12/02 08:31:33;;;;;;;44.55;14.55;;;1.40;99.90;;;;;;5002010;28;20483;-62
2020/12/02 08:34:27;;;;;;;33.58;12.68;;;1.50;99.90;;;;;;5003390;28;20049;-63
2020/12/02 08:37:21;;;;;;;28.27;11.07;;;1.70;99.90;;;;;;5002662;28;20053;-63
2020/12/02 08:39:51;;;;;;;32.00;11.70;;;1.90;99.90;;;;;;5001464;28;20046;-60
2020/12/02 08:42:30;;;;;;;31.67;12.15;;;2.10;98.80;;;;;;4998626;28;20034;-63
2020/12/02 08:45:17;;;;;;;27.02;10.23;;;2.20;97.20;;;;;;5003731;28;20119;-63
2020/12/02 08:47:50;;;;;;;27.17;10.23;;;2.20;96.70;;;;;;5001997;28;20054;-63
2020/12/02 08:50:23;;;;;;;34.10;11.23;;;2.30;96.40;;;;;;5002781;28;20042;-63
2020/12/02 08:52:52;;;;;;;27.92;10.43;;;2.30;96.20;;;;;;5003390;28;20124;-63
2020/12/02 08:55:19;;;;;;;28.48;10.70;;;2.20;96.20;;;;;;5001070;28;20045;-63
2020/12/02 08:57:46;;;;;;;28.35;11.15;;;2.20;96.00;;;;;;5003604;28;20057;-62
2020/12/02 09:00:17;;;;;;;29.20;10.60;;;2.20;95.60;;;;;;5000442;28;20050;-62
2020/12/02 09:02:44;;;;;;;27.98;10.95;;;2.20;96.00;;;;;;5001475;28;20048;-61
2020/12/02 09:05:11;;;;;;;26.63;10.20;;;2.20;95.60;;;;;;5035376;28;20046;-61
2020/12/02 09:07:37;;;;;;;30.77;11.60;;;2.10;96.10;;;;;;5003126;28;20046;-61
2020/12/02 09:10:05;;;;;;;32.92;11.68;;;2.20;96.30;;;;;;5002390;28;20583;-62
2020/12/02 09:12:32;;;;;;;34.92;11.85;;;2.30;96.40;;;;;;5038026;28;20049;-61
2020/12/02 09:14:59;;;;;;;31.25;11.68;;;2.40;95.90;;;;;;5004559;28;20049;-62
2020/12/02 09:17:26;;;;;;;32.85;10.50;;;2.40;95.40;;;;;;5003829;28;20500;-62
2020/12/02 09:19:52;;;;;;;25.48;10.65;;;2.60;94.90;;;;;;5004929;28;20486;-62
2020/12/02 09:22:20;;;;;;;26.23;9.35;;;2.50;94.40;;;;;;5006760;28;20041;-62
2020/12/02 09:24:47;;;;;;;27.45;9.38;;;2.60;95.00;;;;;;5014787;28;20041;-62
2020/12/02 09:27:14;;;;;;;24.17;8.35;;;2.60;94.70;;;;;;5007644;28;20809;-62
2020/12/02 09:29:41;;;;;;;29.20;10.15;;;2.80;94.60;;;;;;5004145;28;20041;-62
2020/12/02 09:32:08;;;;;;;24.95;8.38;;;2.90;94.20;;;;;;5007679;28;20072;-62
2020/12/02 09:34:35;;;;;;;20.73;7.95;;;3.00;92.70;;;;;;5002752;28;20097;-62
2020/12/02 09:37:05;;;;;;;28.77;9.85;;;3.10;93.00;;;;;;5003935;28;20630;-62
2020/12/02 09:39:32;;;;;;;22.05;9.07;;;3.30;92.40;;;;;;5034527;28;20061;-62
2020/12/02 09:41:58;;;;;;;18.48;7.78;;;3.40;90.90;;;;;;5016611;28;20101;-61
2020/12/02 09:44:45;;;;;;;24.42;8.82;;;3.50;90.70;;;;;;5040457;28;20386;-62
2020/12/02 09:47:15;;;;;;;24.42;8.52;;;3.70;90.50;;;;;;5010013;28;20525;-62
2020/12/02 09:49:44;;;;;;;26.55;8.38;;;3.80;90.00;;;;;;5007615;28;20505;-63
2020/12/02 09:52:21;;;;;;;22.13;8.57;;;4.00;89.10;;;;;;5008180;28;20119;-62
2020/12/02 09:54:48;;;;;;;23.38;8.85;;;4.00;86.60;;;;;;5000994;28;20042;-63
2020/12/02 09:57:23;;;;;;;22.42;8.55;;;4.10;86.10;;;;;;5002280;28;20554;-63
2020/12/02 09:59:53;;;;;;;24.73;8.23;;;4.20;85.40;;;;;;5006850;28;20060;-64
2020/12/02 10:02:51;;;;;;;22.27;8.50;;;4.40;82.90;;;;;;5010256;28;20050;-63
2020/12/02 10:05:26;;;;;;;21.30;8.02;;;4.40;81.80;;;;;;5025173;28;20045;-62
2020/12/02 10:08:34;;;;;;;21.40;8.85;;;4.40;80.50;;;;;;4999136;28;20870;-63
2020/12/02 10:11:06;;;;;;;25.23;9.20;;;4.50;79.60;;;;;;5008226;28;20042;-62
2020/12/02 10:13:51;;;;;;;22.08;9.05;;;4.40;80.20;;;;;;5008836;28;20512;-62
2020/12/02 10:16:55;;;;;;;26.58;8.45;;;4.60;80.40;;;;;;5006679;28;20045;-63
2020/12/02 10:19:41;;;;;;;20.90;8.15;;;4.50;79.60;;;;;;4987224;28;20061;-63
2020/12/02 10:22:28;;;;;;;20.63;8.77;;;4.40;80.20;;;;;;4986178;28;20058;-63
2020/12/02 10:25:18;;;;;;;22.70;9.05;;;4.30;80.10;;;;;;4966479;28;20192;-62
2020/12/02 10:27:54;;;;;;;23.00;8.57;;;4.50;81.10;;;;;;4968224;28;20046;-62
2020/12/02 10:30:25;;;;;;;24.50;8.38;;;4.50;80.00;;;;;;4985408;28;20054;-62
2020/12/02 10:32:59;;;;;;;21.73;8.85;;;4.50;79.40;;;;;;4985382;28;20050;-63
2020/12/02 10:35:28;;;;;;;21.95;9.25;;;4.60;78.90;;;;;;4985568;28;20046;-62
2020/12/02 10:37:59;;;;;;;25.52;9.82;;;4.60;78.20;;;;;;4981728;28;20050;-63
2020/12/02 10:40:34;;;;;;;21.20;8.98;;;4.70;77.90;;;;;;4982344;28;20050;-63
2020/12/02 10:43:45;;;;;;;25.30;10.52;;;4.70;78.00;;;;;;4987907;28;20050;-62
2020/12/02 10:46:23;;;;;;;25.15;8.60;;;4.60;77.60;;;;;;4986843;28;20042;-62
2020/12/02 10:49:09;;;;;;;22.50;9.60;;;4.50;80.20;;;;;;4986330;28;20060;-62
2020/12/02 10:51:38;;;;;;;20.52;8.43;;;4.40;79.80;;;;;;4981335;28;20055;-62
2020/12/02 10:54:13;;;;;;;21.00;8.48;;;4.30;80.00;;;;;;4971896;28;20972;-62
2020/12/02 10:56:42;;;;;;;21.02;9.30;;;4.30;79.80;;;;;;5037689;28;20062;-62
2020/12/02 10:59:14;;;;;;;21.67;8.82;;;4.30;79.50;;;;;;5007356;28;20779;-62
2020/12/02 11:01:42;;;;;;;20.75;8.65;;;4.20;80.30;;;;;;5005048;28;20057;-62
2020/12/02 11:04:15;;;;;;;29.63;10.75;;;4.20;81.10;;;;;;5001011;28;20057;-62
2020/12/02 11:07:09;;;;;;;25.67;10.27;;;4.30;80.00;;;;;;5007465;28;20042;-62
2020/12/02 11:10:05;;;;;;;22.33;8.50;;;4.40;81.30;;;;;;5044607;28;20120;-62
2020/12/02 11:12:40;;;;;;;30.00;9.93;;;4.50;79.10;;;;;;4997790;28;20386;-61
2020/12/02 11:15:22;;;;;;;28.13;11.93;;;4.70;78.30;;;;;;5033965;28;20424;-62
2020/12/02 11:18:24;;;;;;;24.77;7.82;;;5.00;76.90;;;;;;5023757;28;20044;-61
2020/12/02 11:20:56;;;;;;;23.38;9.40;;;5.00;78.40;;;;;;5011307;28;20064;-64
2020/12/02 11:23:45;;;;;;;25.85;9.32;;;5.50;75.50;;;;;;5006554;28;20472;-61
2020/12/02 11:26:26;;;;;;;24.45;9.50;;;6.10;72.90;;;;;;5044155;28;20034;-63
2020/12/02 11:28:54;;;;;;;22.38;8.95;;;6.60;70.60;;;;;;5007699;28;20050;-63
2020/12/02 11:31:42;;;;;;;27.05;9.77;;;6.50;70.00;;;;;;5011046;28;20555;-64
2020/12/02 11:34:47;;;;;;;24.65;9.38;;;7.00;68.70;;;;;;4994299;28;20045;-61
2020/12/02 11:37:18;;;;;;;25.15;10.00;;;7.50;67.00;;;;;;5037089;28;20054;-62
2020/12/02 11:40:07;;;;;;;24.63;9.57;;;7.80;66.10;;;;;;5000898;28;20050;-62
2020/12/02 11:42:44;;;;;;;21.88;9.48;;;7.80;64.90;;;;;;4997722;28;20042;-62
2020/12/02 11:45:21;;;;;;;24.42;10.18;;;7.90;64.70;;;;;;5003230;28;20058;-62
2020/12/02 11:48:14;;;;;;;28.65;9.85;;;7.90;64.20;;;;;;5004255;28;20045;-62
2020/12/02 11:51:03;;;;;;;27.97;11.47;;;7.80;64.00;;;;;;4993441;28;20513;-62
2020/12/02 11:53:50;;;;;;;28.63;10.68;;;7.60;65.20;;;;;;5006523;28;20401;-62
2020/12/02 11:56:23;;;;;;;27.88;10.80;;;7.50;64.80;;;;;;4998559;28;20061;-62
2020/12/02 11:58:58;;;;;;;26.42;10.65;;;7.10;66.10;;;;;;5003550;28;20045;-62
2020/12/02 12:01:55;;;;;;;27.70;10.75;;;7.10;65.60;;;;;;5004207;28;20046;-62
2020/12/02 12:04:25;;;;;;;25.95;10.25;;;6.70;66.90;;;;;;5002749;28;20050;-62
2020/12/02 12:06:55;;;;;;;25.17;10.13;;;6.60;66.80;;;;;;5007406;28;20049;-62
2020/12/02 12:09:36;;;;;;;22.98;10.07;;;6.30;67.80;;;;;;5001267;28;20101;-62
2020/12/02 12:12:16;;;;;;;25.25;9.60;;;5.70;70.20;;;;;;5002538;28;20048;-64
2020/12/02 12:15:15;;;;;;;26.52;10.20;;;5.50;71.50;;;;;;5006056;28;20050;-64
2020/12/02 12:17:45;;;;;;;24.90;10.20;;;5.30;72.50;;;;;;4999010;28;20058;-64
2020/12/02 12:20:22;;;;;;;26.30;10.68;;;5.00;73.50;;;;;;5000478;28;20077;-64
2020/12/02 12:23:09;;;;;;;25.90;10.73;;;4.90;74.10;;;;;;5004686;28;20045;-64
2020/12/02 12:25:37;;;;;;;25.15;10.35;;;4.50;76.10;;;;;;4995910;28;20049;-64
2020/12/02 12:28:18;;;;;;;28.25;11.18;;;4.40;76.50;;;;;;5004881;28;20041;-63
2020/12/02 12:30:45;;;;;;;32.15;12.05;;;4.40;77.50;;;;;;5004934;28;20686;-62
2020/12/02 12:33:25;;;;;;;28.30;10.40;;;4.20;78.20;;;;;;5013772;28;20061;-61
2020/12/02 12:35:59;;;;;;;27.73;9.68;;;4.10;79.40;;;;;;5002411;28;20045;-63
2020/12/02 12:38:44;;;;;;;25.75;10.55;;;4.00;79.90;;;;;;5004700;28;20046;-63
2020/12/02 12:41:16;;;;;;;25.75;9.50;;;4.00;79.80;;;;;;5007622;28;20038;-63
2020/12/02 12:43:59;;;;;;;24.73;8.07;;;4.00;80.20;;;;;;5003681;28;20038;-63
2020/12/02 12:46:55;;;;;;;27.17;11.45;;;3.90;80.90;;;;;;5004953;28;20042;-63
2020/12/02 12:49:22;;;;;;;25.73;10.35;;;3.60;82.20;;;;;;5006077;28;20065;-64
2020/12/02 12:51:57;;;;;;;27.63;10.90;;;3.50;82.90;;;;;;5007078;28;20034;-64
2020/12/02 12:54:24;;;;;;;29.58;10.93;;;3.60;83.20;;;;;;5010893;28;20034;-64
2020/12/02 12:56:52;;;;;;;26.33;11.15;;;3.50;83.80;;;;;;5009167;28;21712;-64
2020/12/02 12:59:20;;;;;;;31.00;10.88;;;3.50;83.70;;;;;;5017465;28;20051;-64
2020/12/02 13:01:49;;;;;;;30.80;11.27;;;3.50;84.50;;;;;;4999093;28;20532;-64
2020/12/02 13:04:19;;;;;;;27.63;10.77;;;3.50;84.40;;;;;;5007117;28;20034;-64
2020/12/02 13:07:01;;;;;;;32.25;11.93;;;3.60;84.60;;;;;;5020190;28;20046;-61
2020/12/02 13:09:43;;;;;;;29.20;11.77;;;3.60;84.80;;;;;;5008396;28;20528;-64
2020/12/02 13:12:22;;;;;;;27.80;11.52;;;3.60;85.00;;;;;;5009042;28;20436;-63